Time;durP1;ratioP1;P1;durP2;ratioP2;P2;SDS_P1;SDS_P2;PMS_P1;PMS_P2;Temp;Humidity;BMP_temperature;BMP_pressure;BME280_temperature;BME280_humidity;BME280_pressure;Samples;Min_cycle;Max_cycle;Signal;HPM_P1;HPM_P2
2022/08/08 00:00:07;;;;;;;7.25;2.80;;;;;;;16.51;60.67;100657.59;5046711;28;20071;-84
2022/08/08 00:03:06;;;;;;;5.35;3.05;;;;;;;16.48;60.67;100657.31;5033498;28;20443;-78
2022/08/08 00:05:42;;;;;;;5.68;3.63;;;;;;;16.38;61.18;100648.00;5025706;28;20037;-79
2022/08/08 00:08:30;;;;;;;11.23;3.60;;;;;;;16.43;61.27;100653.47;5025394;28;20029;-79
2022/08/08 00:11:05;;;;;;;6.35;2.53;;;;;;;16.43;61.05;100656.22;5025271;28;20069;-79
2022/08/08 00:14:00;;;;;;;6.80;3.05;;;;;;;16.39;61.33;100648.84;5044889;28;20459;-79
2022/08/08 00:16:30;;;;;;;4.57;2.22;;;;;;;16.46;61.00;100643.84;5045305;28;20037;-78
2022/08/08 00:19:15;;;;;;;4.68;2.65;;;;;;;16.40;61.26;100650.47;5044410;28;20051;-79
2022/08/08 00:21:46;;;;;;;7.57;3.08;;;;;;;16.41;61.37;100641.13;5045638;28;20037;-82
2022/08/08 00:24:30;;;;;;;6.53;2.67;;;;;;;16.33;62.05;100639.81;5045805;28;20534;-80
2022/08/08 00:27:00;;;;;;;7.95;3.75;;;;;;;16.36;62.00;100644.72;5046162;28;20511;-79
2022/08/08 00:29:38;;;;;;;5.20;2.58;;;;;;;16.24;62.36;100647.81;5044605;28;20140;-79
2022/08/08 00:32:12;;;;;;;4.57;2.60;;;;;;;16.14;62.73;100640.41;5045853;28;20025;-85
2022/08/08 00:35:13;;;;;;;7.20;3.67;;;;;;;15.98;63.12;100645.97;5046897;28;20456;-86
2022/08/08 00:37:45;;;;;;;8.07;3.58;;;;;;;15.94;63.17;100639.38;5046713;28;20052;-81
2022/08/08 00:40:29;;;;;;;6.60;3.47;;;;;;;15.96;63.54;100642.66;5045019;28;20057;-81
2022/08/08 00:43:13;;;;;;;5.70;3.35;;;;;;;15.93;64.02;100643.22;5046704;28;20078;-88
2022/08/08 00:45:59;;;;;;;8.05;5.13;;;;;;;15.85;63.91;100649.28;5047513;28;20045;-87
2022/08/08 00:48:30;;;;;;;7.32;3.40;;;;;;;15.86;63.96;100640.75;5038051;28;20075;-86
2022/08/08 00:51:30;;;;;;;7.97;4.22;;;;;;;15.92;64.27;100641.56;5047047;28;20040;-85
2022/08/08 00:54:23;;;;;;;8.85;3.63;;;;;;;16.02;64.03;100643.50;5027548;28;20045;-85
2022/08/08 00:57:09;;;;;;;5.85;3.60;;;;;;;16.03;64.05;100644.31;5030904;28;20143;-81
2022/08/08 01:00:06;;;;;;;6.20;3.60;;;;;;;15.95;64.24;100645.66;5041020;28;20066;-80
2022/08/08 01:02:50;;;;;;;6.15;3.80;;;;;;;16.00;64.18;100645.66;5049432;28;20061;-79
2022/08/08 01:05:31;;;;;;;5.93;3.17;;;;;;;15.78;64.66;100641.34;5048719;28;20514;-79
2022/08/08 01:08:51;;;;;;;8.52;4.78;;;;;;;15.68;65.12;100647.66;5049146;28;20502;-78
2022/08/08 01:11:22;;;;;;;10.15;3.15;;;;;;;15.67;64.64;100640.53;5049661;28;20063;-86
2022/08/08 01:14:42;;;;;;;8.43;3.65;;;;;;;15.62;64.83;100657.84;5050364;28;20049;-85
2022/08/08 01:17:39;;;;;;;5.57;3.38;;;;;;;15.68;64.87;100653.16;5047227;28;20045;-78
2022/08/08 01:20:26;;;;;;;6.55;3.70;;;;;;;15.80;64.64;100654.78;5044836;28;20045;-78
2022/08/08 01:23:14;;;;;;;6.43;3.97;;;;;;;15.62;64.88;100660.59;5047616;28;20044;-79
2022/08/08 01:26:17;;;;;;;7.57;3.78;;;;;;;15.51;65.41;100651.56;5049448;28;20036;-85
2022/08/08 01:29:00;;;;;;;7.05;4.13;;;;;;;15.49;65.05;100659.25;5050150;28;20032;-85
2022/08/08 01:31:44;;;;;;;7.28;3.78;;;;;;;15.39;65.95;100654.59;5051268;28;20036;-88
2022/08/08 01:34:56;;;;;;;6.40;3.60;;;;;;;15.33;66.14;100650.19;5051711;28;20079;-88
2022/08/08 01:37:30;;;;;;;6.22;3.47;;;;;;;15.28;66.29;100651.00;5051914;28;20021;-88
2022/08/08 01:40:33;;;;;;;7.40;3.70;;;;;;;15.26;66.71;100653.22;5048717;28;20064;-88
2022/08/08 01:43:37;;;;;;;7.28;4.15;;;;;;;15.31;66.14;100655.13;5050582;28;20036;-89
2022/08/08 01:46:40;;;;;;;8.40;3.42;;;;;;;15.25;66.28;100651.56;5038147;28;20049;-85
2022/08/08 01:49:18;;;;;;;6.43;3.95;;;;;;;15.14;66.61;100649.91;5048116;28;20124;-85
2022/08/08 01:51:57;;;;;;;7.90;4.10;;;;;;;15.20;67.05;100643.31;5049000;28;20512;-81
2022/08/08 01:54:40;;;;;;;7.03;2.70;;;;;;;15.04;67.53;100640.56;5048183;28;20045;-81
2022/08/08 01:57:15;;;;;;;8.25;4.15;;;;;;;15.07;67.50;100657.59;5047814;28;20029;-79
2022/08/08 01:59:59;;;;;;;7.93;3.88;;;;;;;15.05;67.44;100646.91;5046830;28;20060;-80
2022/08/08 02:02:35;;;;;;;;;;;;;;;14.99;67.64;100658.97;5050339;28;20033;-84
2022/08/08 02:05:22;;;;;;;8.18;4.57;;;;;;;15.02;67.62;100648.25;5048862;28;19917;-84
2022/08/08 02:08:01;;;;;;;7.90;4.20;;;;;;;14.97;67.99;100650.19;5049191;28;20071;-85
2022/08/08 02:10:53;;;;;;;10.48;4.72;;;;;;;14.97;67.41;100652.94;5048249;28;20150;-85
2022/08/08 02:13:27;;;;;;;7.22;4.82;;;;;;;14.90;68.02;100656.75;5049340;28;20519;-90
2022/08/08 02:15:58;;;;;;;;;;;;;;;14.93;68.26;100656.19;5050250;28;20037;-90
2022/08/08 02:18:43;;;;;;;8.25;4.50;;;;;;;14.94;67.94;100657.88;5048751;28;19990;-90
2022/08/08 02:24:27;;;;;;;7.15;4.22;;;;;;;14.74;68.63;100653.13;5027672;28;20099;-81
2022/08/08 02:27:02;;;;;;;7.30;3.97;;;;;;;14.89;68.10;100665.28;5029053;28;20358;-90
2022/08/08 02:29:37;;;;;;;5.60;3.63;;;;;;;14.88;67.98;100652.63;5038664;28;20043;-90
2022/08/08 02:32:43;;;;;;;8.13;3.63;;;;;;;14.76;68.58;100648.19;5049776;28;20037;-85
2022/08/08 02:35:34;;;;;;;7.80;3.92;;;;;;;14.69;68.93;100650.34;5039916;28;20060;-85
2022/08/08 02:38:17;;;;;;;6.70;3.33;;;;;;;14.59;69.24;100652.00;5048904;28;20606;-85
2022/08/08 02:41:01;;;;;;;8.00;4.20;;;;;;;14.57;69.76;100647.88;5047516;28;20033;-81
2022/08/08 02:43:35;;;;;;;7.47;4.70;;;;;;;14.57;69.66;100653.34;5047383;28;20029;-81
2022/08/08 02:46:16;;;;;;;8.27;4.35;;;;;;;14.41;69.55;100649.72;5047841;28;20037;-84
2022/08/08 02:49:03;;;;;;;7.63;4.88;;;;;;;14.45;69.88;100645.34;5046764;28;20051;-85
2022/08/08 02:52:06;;;;;;;9.68;5.85;;;;;;;14.52;70.01;100650.59;5030013;28;20654;-85
2022/08/08 02:55:13;;;;;;;8.32;4.85;;;;;;;14.43;70.08;100653.03;5046079;28;20037;-88
2022/08/08 02:58:12;;;;;;;7.88;4.60;;;;;;;14.51;70.22;100648.94;5048666;28;20036;-88
2022/08/08 03:00:56;;;;;;;9.38;5.60;;;;;;;14.46;70.55;100652.50;5043611;28;20044;-80
2022/08/08 03:03:24;;;;;;;8.10;4.88;;;;;;;14.43;70.66;100647.56;5046817;28;20029;-88
2022/08/08 03:06:27;;;;;;;7.90;4.93;;;;;;;14.46;70.20;100649.78;5047176;28;20033;-89
2022/08/08 03:09:11;;;;;;;12.20;4.97;;;;;;;14.41;70.75;100647.00;5047158;28;20024;-84
2022/08/08 03:11:57;;;;;;;;;;;;;;;14.36;70.78;100654.09;5048388;28;20039;-84
2022/08/08 03:14:41;;;;;;;12.77;4.68;;;;;;;14.22;71.26;100658.44;5048254;28;20472;-84
2022/08/08 03:17:33;;;;;;;8.90;4.68;;;;;;;14.18;70.94;100660.06;5046715;28;20458;-85
2022/08/08 03:20:09;;;;;;;7.45;4.00;;;;;;;14.19;71.46;100657.06;5031892;28;20233;-84
2022/08/08 03:22:49;;;;;;;8.57;4.20;;;;;;;14.23;71.36;100657.34;5047677;28;20287;-85
2022/08/08 03:25:17;;;;;;;10.00;5.50;;;;;;;14.14;71.68;100661.72;5047588;28;20167;-85
2022/08/08 03:28:06;;;;;;;8.43;4.35;;;;;;;14.09;71.90;100666.06;5047918;28;20488;-85
2022/08/08 03:30:31;;;;;;;8.27;4.55;;;;;;;14.18;70.94;100671.84;5045391;28;20044;-81
2022/08/08 03:35:40;;;;;;;8.80;5.22;;;;;;;14.21;71.60;100665.03;5046467;28;20107;-80
2022/08/08 03:38:07;;;;;;;7.95;5.25;;;;;;;14.06;71.51;100661.13;5046474;28;20139;-81
2022/08/08 03:40:33;;;;;;;10.82;6.28;;;;;;;14.09;71.88;100666.06;5045448;28;20440;-81
2022/08/08 03:42:59;;;;;;;10.65;5.75;;;;;;;14.01;72.42;100667.38;5046216;28;20119;-81
2022/08/08 03:45:26;;;;;;;9.85;5.05;;;;;;;14.10;72.30;100669.63;5044656;28;20025;-81
2022/08/08 03:48:03;;;;;;;9.05;5.32;;;;;;;13.83;72.97;100665.91;5045716;28;20037;-89
2022/08/08 03:50:30;;;;;;;8.48;5.20;;;;;;;13.95;72.88;100673.94;5046546;28;20048;-88
2022/08/08 03:53:04;;;;;;;12.70;7.15;;;;;;;13.92;73.05;100676.38;5046716;28;20025;-88
2022/08/08 03:55:29;;;;;;;16.42;9.27;;;;;;;14.02;72.91;100681.94;5047511;28;20032;-88
2022/08/08 03:57:55;;;;;;;12.68;8.43;;;;;;;14.04;72.91;100685.22;5047135;28;20040;-81
2022/08/08 04:00:23;;;;;;;20.58;9.77;;;;;;;14.00;73.10;100695.06;5042993;28;20043;-80
2022/08/08 04:03:06;;;;;;;11.57;7.43;;;;;;;14.09;72.90;100693.50;5045727;28;20036;-83
2022/08/08 04:05:36;;;;;;;12.75;7.55;;;;;;;14.10;72.74;100692.41;5046624;28;20037;-84
2022/08/08 04:08:04;;;;;;;13.02;7.15;;;;;;;14.25;72.53;100693.56;5047375;28;20029;-80
2022/08/08 04:10:32;;;;;;;20.77;6.78;;;;;;;14.37;73.19;100698.84;5041673;28;20032;-81
2022/08/08 04:13:00;;;;;;;12.15;6.43;;;;;;;14.40;72.79;100698.28;5045688;28;20480;-79
2022/08/08 04:15:25;;;;;;;15.55;5.97;;;;;;;14.27;72.66;100699.63;5044809;28;20135;-78
2022/08/08 04:17:51;;;;;;;13.32;7.07;;;;;;;14.25;72.77;100701.78;5044866;28;20032;-88
2022/08/08 04:20:16;;;;;;;10.50;6.22;;;;;;;14.35;72.57;100701.84;5046362;28;20147;-88
2022/08/08 04:22:42;;;;;;;10.93;6.43;;;;;;;14.22;72.37;100697.66;5047221;28;20150;-88
2022/08/08 04:25:08;;;;;;;9.93;5.95;;;;;;;14.19;73.09;100703.69;5047200;28;20423;-88
2022/08/08 04:27:35;;;;;;;10.23;5.07;;;;;;;14.35;73.09;100706.50;5047991;28;20484;-88
2022/08/08 04:30:03;;;;;;;10.88;5.60;;;;;;;14.67;72.25;100704.69;5036894;28;20041;-89
2022/08/08 04:32:28;;;;;;;13.88;6.28;;;;;;;14.79;71.60;100710.78;5027717;28;20068;-90
2022/08/08 04:34:54;;;;;;;12.30;5.30;;;;;;;14.64;71.88;100708.81;5026969;28;20030;-79
2022/08/08 04:37:19;;;;;;;12.55;5.38;;;;;;;14.59;72.46;100714.28;5026192;28;20088;-79
2022/08/08 04:39:44;;;;;;;10.43;5.05;;;;;;;14.63;72.08;100715.38;5037886;28;20128;-80
2022/08/08 04:42:10;;;;;;;10.75;5.25;;;;;;;14.63;72.07;100711.81;5045151;28;20151;-81
2022/08/08 04:44:35;;;;;;;8.85;4.85;;;;;;;14.56;71.89;100712.09;5046425;28;20059;-84
2022/08/08 04:47:01;;;;;;;9.75;5.40;;;;;;;14.50;72.12;100713.16;5044938;28;20119;-84
2022/08/08 04:49:26;;;;;;;10.55;5.72;;;;;;;14.61;72.56;100714.84;5046158;28;20041;-91
2022/08/08 04:51:51;;;;;;;12.15;5.93;;;;;;;14.69;71.82;100718.97;5047206;28;20079;-90
2022/08/08 04:54:17;;;;;;;9.07;5.78;;;;;;;14.72;71.52;100718.44;5045575;28;20380;-78
2022/08/08 04:56:42;;;;;;;11.20;5.43;;;;;;;14.79;71.61;100718.19;5044956;28;20032;-79
2022/08/08 04:59:07;;;;;;;11.05;6.28;;;;;;;14.68;72.07;100720.06;5044627;28;20051;-85
2022/08/08 05:01:33;;;;;;;12.30;6.65;;;;;;;14.75;72.01;100717.91;5045171;28;20404;-85
2022/08/08 05:03:58;;;;;;;12.80;7.15;;;;;;;14.93;71.28;100716.59;5046062;28;20475;-81
2022/08/08 05:06:23;;;;;;;14.43;7.05;;;;;;;15.00;70.99;100721.84;5045616;28;20599;-81
2022/08/08 05:08:49;;;;;;;13.23;6.10;;;;;;;15.05;71.16;100724.59;5044924;28;20137;-83
2022/08/08 05:11:14;;;;;;;18.98;8.75;;;;;;;15.18;69.74;100722.41;5046335;28;20037;-84
2022/08/08 05:13:40;;;;;;;18.08;8.73;;;;;;;15.24;69.93;100721.31;5045586;28;20057;-79
2022/08/08 05:16:08;;;;;;;15.90;8.15;;;;;;;15.27;69.58;100728.19;5044684;28;20494;-79
2022/08/08 05:18:35;;;;;;;10.23;6.53;;;;;;;15.27;69.17;100726.28;5044333;28;20036;-83
2022/08/08 05:21:02;;;;;;;12.68;7.03;;;;;;;15.34;69.19;100725.16;5045282;28;20033;-83
2022/08/08 05:23:27;;;;;;;17.45;6.80;;;;;;;15.39;68.58;100722.44;5046649;28;20076;-85
2022/08/08 05:25:52;;;;;;;10.35;5.45;;;;;;;15.42;69.09;100724.63;5046578;28;20064;-85
2022/08/08 05:28:18;;;;;;;16.55;5.50;;;;;;;15.47;68.92;100726.56;5045359;28;20087;-81
2022/08/08 05:30:43;;;;;;;19.63;6.85;;;;;;;15.55;68.38;100730.69;5044386;28;20040;-81
2022/08/08 05:33:09;;;;;;;11.15;7.00;;;;;;;15.64;68.34;100723.53;5044925;28;20407;-84
2022/08/08 05:35:34;;;;;;;9.18;6.07;;;;;;;15.67;68.52;100724.91;5046051;28;20033;-85
2022/08/08 05:38:04;;;;;;;12.82;5.80;;;;;;;15.74;67.92;100717.22;5046047;28;20071;-88
2022/08/08 05:40:32;;;;;;;13.38;6.80;;;;;;;15.75;68.37;100716.94;5046190;28;20181;-88
2022/08/08 05:43:06;;;;;;;14.10;6.82;;;;;;;15.90;67.99;100719.94;5049898;28;20433;-81
2022/08/08 05:45:36;;;;;;;21.30;8.45;;;;;;;15.91;68.15;100716.91;5047119;28;20075;-81
2022/08/08 05:48:03;;;;;;;17.77;6.35;;;;;;;16.02;67.25;100719.66;5048136;28;20064;-80
2022/08/08 05:50:30;;;;;;;29.92;7.45;;;;;;;15.94;67.80;100715.53;5046652;28;20261;-80
2022/08/08 05:52:57;;;;;;;13.13;7.53;;;;;;;15.90;67.61;100715.25;5048070;28;20412;-79
2022/08/08 05:55:22;;;;;;;12.88;7.30;;;;;;;16.12;66.81;100718.81;5046796;28;20037;-80
2022/08/08 05:57:51;;;;;;;11.80;7.45;;;;;;;16.20;67.14;100719.06;5048037;28;20041;-81
2022/08/08 06:00:17;;;;;;;21.58;9.55;;;;;;;16.19;66.54;100722.91;5046673;28;20051;-80
2022/08/08 06:05:31;;;;;;;20.67;6.95;;;;;;;16.17;66.08;100733.38;5048236;28;20114;-81
2022/08/08 06:07:58;;;;;;;13.73;7.38;;;;;;;16.25;66.33;100736.66;5047123;28;20472;-82
2022/08/08 06:10:28;;;;;;;13.27;7.13;;;;;;;16.41;65.79;100730.03;5046734;28;20029;-82
2022/08/08 06:12:55;;;;;;;13.35;7.55;;;;;;;16.48;65.36;100737.97;5047559;28;20065;-80
2022/08/08 06:15:21;;;;;;;11.63;7.13;;;;;;;16.57;65.65;100729.94;5047602;28;20060;-80
2022/08/08 06:17:48;;;;;;;13.02;6.60;;;;;;;16.66;64.88;100739.25;5045941;28;20040;-80
2022/08/08 06:20:14;;;;;;;9.35;6.15;;;;;;;16.66;64.98;100744.75;5046670;28;20044;-81
2022/08/08 06:22:39;;;;;;;16.50;7.78;;;;;;;16.66;65.03;100752.19;5047503;28;20033;-80
2022/08/08 06:25:06;;;;;;;10.60;6.53;;;;;;;16.72;64.43;100751.06;5047905;28;20044;-80
2022/08/08 06:27:45;;;;;;;13.88;6.72;;;;;;;16.67;65.11;100753.84;5047849;28;20028;-80
2022/08/08 06:30:13;;;;;;;14.20;6.93;;;;;;;16.69;64.13;100757.16;5046153;28;20341;-80
2022/08/08 06:32:50;;;;;;;21.00;8.38;;;;;;;16.78;64.45;100755.44;5047458;28;20048;-80
2022/08/08 06:35:17;;;;;;;16.60;9.73;;;;;;;16.72;64.07;100755.78;5046530;28;20527;-80
2022/08/08 06:37:56;;;;;;;20.67;10.10;;;;;;;16.60;65.53;100753.34;5046525;28;20115;-80
2022/08/08 06:40:24;;;;;;;17.88;8.90;;;;;;;16.77;64.99;100758.47;5045580;28;20116;-79
2022/08/08 06:43:03;;;;;;;17.30;8.88;;;;;;;16.87;64.93;100763.13;5047253;28;20037;-79
2022/08/08 06:45:32;;;;;;;16.77;8.48;;;;;;;16.80;65.04;100760.69;5045675;28;20094;-79
2022/08/08 06:47:59;;;;;;;11.95;7.55;;;;;;;16.73;64.69;100762.91;5046599;28;20404;-78
2022/08/08 06:50:24;;;;;;;12.75;7.43;;;;;;;16.77;65.54;100764.81;5045308;28;20071;-77
2022/08/08 06:52:50;;;;;;;15.55;8.32;;;;;;;16.89;64.67;100766.41;5046657;28;20029;-83
2022/08/08 06:55:17;;;;;;;17.13;7.38;;;;;;;16.83;64.77;100765.63;5048075;28;20264;-84
2022/08/08 06:57:42;;;;;;;22.15;8.70;;;;;;;17.06;63.95;100757.78;5049287;28;20059;-84
2022/08/08 07:00:08;;;;;;;15.25;7.03;;;;;;;17.14;63.61;100759.97;5035432;28;20033;-84
2022/08/08 07:02:35;;;;;;;13.68;7.25;;;;;;;16.99;64.72;100765.53;5028518;28;20516;-84
2022/08/08 07:05:04;;;;;;;13.25;7.90;;;;;;;17.25;62.95;100762.66;5025378;28;20033;-77
2022/08/08 07:07:36;;;;;;;17.70;9.05;;;;;;;17.38;62.71;100762.03;5026488;28;20120;-77
2022/08/08 07:10:03;;;;;;;11.30;8.30;;;;;;;17.31;62.98;100767.00;5043490;28;20043;-90
2022/08/08 07:12:52;;;;;;;12.23;6.78;;;;;;;17.33;62.46;100764.78;5048992;28;20036;-90
2022/08/08 07:15:28;;;;;;;13.52;8.13;;;;;;;17.22;63.24;100763.22;5044540;28;20045;-84
2022/08/08 07:18:01;;;;;;;14.63;7.15;;;;;;;17.44;62.56;100764.72;5046573;28;20391;-85
2022/08/08 07:20:31;;;;;;;11.60;6.57;;;;;;;17.47;62.37;100775.19;5047219;28;20036;-85
2022/08/08 07:23:01;;;;;;;11.70;7.03;;;;;;;17.43;62.04;100774.13;5048974;28;20514;-83
2022/08/08 07:25:30;;;;;;;14.38;7.57;;;;;;;17.42;62.41;100778.81;5048845;28;20335;-83
2022/08/08 07:28:06;;;;;;;12.15;7.22;;;;;;;17.70;61.60;100783.81;5050967;28;20361;-83
2022/08/08 07:30:31;;;;;;;17.33;8.50;;;;;;;17.53;61.30;100779.56;5048423;28;20476;-83
2022/08/08 07:32:58;;;;;;;13.07;7.57;;;;;;;17.67;60.90;100781.66;5048111;28;20150;-80
2022/08/08 07:35:24;;;;;;;15.30;7.00;;;;;;;17.67;61.08;100788.00;5046440;28;20410;-80
2022/08/08 07:37:51;;;;;;;14.18;7.57;;;;;;;17.94;60.45;100786.66;5046283;28;20456;-84
2022/08/08 07:40:17;;;;;;;16.85;7.97;;;;;;;18.04;61.16;100782.97;5047376;28;20037;-84
2022/08/08 07:42:43;;;;;;;19.15;9.43;;;;;;;18.07;60.02;100785.16;5046932;28;20082;-85
2022/08/08 07:45:09;;;;;;;15.30;7.70;;;;;;;17.94;60.59;100792.16;5047924;28;20464;-84
2022/08/08 07:47:35;;;;;;;14.65;8.02;;;;;;;18.00;61.22;100794.88;5047184;28;20078;-85
2022/08/08 07:50:01;;;;;;;13.85;8.02;;;;;;;18.11;60.75;100793.66;5047392;28;20484;-85
2022/08/08 07:52:27;;;;;;;14.50;8.80;;;;;;;17.97;61.55;100794.34;5047957;28;20271;-84
2022/08/08 07:55:04;;;;;;;16.98;9.15;;;;;;;18.12;61.17;100800.03;5045729;28;20058;-81
2022/08/08 07:57:35;;;;;;;13.57;7.70;;;;;;;18.20;60.66;100796.66;5045980;28;20047;-80
2022/08/08 08:00:08;;;;;;;15.85;8.52;;;;;;;18.22;60.53;100802.72;5045475;28;20127;-80
2022/08/08 08:02:41;;;;;;;13.65;8.70;;;;;;;18.29;60.88;100796.81;5044564;28;20025;-81
2022/08/08 08:05:12;;;;;;;17.73;7.53;;;;;;;18.35;60.48;100794.81;5047246;28;20713;-91
2022/08/08 08:07:40;;;;;;;12.23;6.55;;;;;;;18.42;60.15;100798.91;5046877;28;20484;-91
2022/08/08 08:10:09;;;;;;;13.35;8.75;;;;;;;18.28;60.78;100807.06;5045608;28;20036;-90
2022/08/08 08:12:36;;;;;;;11.60;6.78;;;;;;;18.46;61.09;100793.63;5047243;28;20555;-91
2022/08/08 08:15:05;;;;;;;12.18;7.63;;;;;;;18.47;59.87;100799.97;5046272;28;20044;-84
2022/08/08 08:17:40;;;;;;;16.65;8.05;;;;;;;18.59;60.37;100808.63;5044120;28;20055;-84
2022/08/08 08:20:07;;;;;;;13.70;7.97;;;;;;;18.60;60.73;100798.44;5044474;28;20195;-80
2022/08/08 08:22:32;;;;;;;11.13;7.88;;;;;;;18.67;60.43;100809.97;5044767;28;20108;-80
2022/08/08 08:24:58;;;;;;;12.93;7.57;;;;;;;18.71;59.48;100808.25;5043252;28;20041;-78
2022/08/08 08:27:24;;;;;;;12.73;7.03;;;;;;;18.76;59.02;100810.94;5044345;28;20269;-78
2022/08/08 08:29:49;;;;;;;14.15;6.85;;;;;;;18.85;58.72;100800.06;5047083;28;20032;-90
2022/08/08 08:32:14;;;;;;;11.27;6.60;;;;;;;19.03;59.29;100805.91;5047218;28;20128;-91
2022/08/08 08:34:40;;;;;;;10.55;5.32;;;;;;;19.07;58.60;100800.59;5047081;28;20308;-85
2022/08/08 08:37:05;;;;;;;9.57;5.63;;;;;;;19.15;58.57;100804.66;5047525;28;20041;-85
2022/08/08 08:39:31;;;;;;;11.85;7.00;;;;;;;19.16;58.09;100796.06;5045152;28;20487;-81
2022/08/08 08:41:57;;;;;;;13.07;7.43;;;;;;;19.10;57.47;100800.81;5045545;28;20374;-80
2022/08/08 08:44:24;;;;;;;13.60;6.50;;;;;;;19.19;58.09;100798.25;5045360;28;20032;-80
2022/08/08 08:46:51;;;;;;;16.13;6.32;;;;;;;19.30;57.72;100800.88;5043817;28;20032;-80
2022/08/08 08:49:16;;;;;;;12.35;5.97;;;;;;;19.37;58.21;100798.53;5043330;28;20264;-80
2022/08/08 08:51:43;;;;;;;8.55;5.35;;;;;;;19.48;57.09;100804.75;5045109;28;20357;-80
2022/08/08 08:54:11;;;;;;;12.77;5.40;;;;;;;19.58;57.06;100803.78;5043783;28;20021;-78
2022/08/08 08:56:38;;;;;;;9.85;4.60;;;;;;;19.63;57.24;100798.13;5044744;28;20124;-78
2022/08/08 08:59:04;;;;;;;11.40;5.80;;;;;;;19.62;56.69;100804.81;5044076;28;20047;-78
2022/08/08 09:01:42;;;;;;;12.32;5.82;;;;;;;19.73;56.23;100804.66;5044280;28;20067;-78
2022/08/08 09:04:21;;;;;;;11.52;5.18;;;;;;;19.89;56.15;100797.72;5045557;28;20041;-85
2022/08/08 09:06:48;;;;;;;11.02;6.20;;;;;;;19.91;55.80;100806.53;5046807;28;20029;-84
2022/08/08 09:09:22;;;;;;;17.90;6.28;;;;;;;20.00;54.77;100808.59;5044851;28;20364;-85
2022/08/08 09:11:51;;;;;;;11.63;5.22;;;;;;;20.21;54.98;100802.72;5047822;28;20565;-84
2022/08/08 09:14:22;;;;;;;11.55;6.22;;;;;;;20.26;54.69;100802.63;5045962;28;20049;-85
2022/08/08 09:16:49;;;;;;;13.20;5.65;;;;;;;20.24;55.07;100800.16;5050151;28;20029;-85
2022/08/08 09:19:15;;;;;;;13.55;7.43;;;;;;;20.38;54.84;100799.38;5047798;28;20508;-78
2022/08/08 09:21:41;;;;;;;10.00;5.35;;;;;;;20.39;53.97;100801.00;5047917;28;20388;-78
2022/08/08 09:24:08;;;;;;;9.07;5.88;;;;;;;20.63;53.23;100798.03;5048308;28;20036;-90
2022/08/08 09:26:50;;;;;;;9.98;4.65;;;;;;;20.49;54.36;100795.28;5051243;28;20058;-90
2022/08/08 09:29:23;;;;;;;10.50;6.38;;;;;;;20.64;53.59;100805.22;5063477;28;20048;-85
2022/08/08 09:32:01;;;;;;;11.98;4.75;;;;;;;20.74;54.03;100804.19;5049838;28;20044;-85
2022/08/08 09:34:30;;;;;;;14.98;5.60;;;;;;;20.94;53.55;100798.53;5049975;28;20028;-84
2022/08/08 09:37:02;;;;;;;14.27;4.95;;;;;;;21.11;52.09;100795.16;5050393;28;20035;-84
2022/08/08 09:39:34;;;;;;;8.93;4.60;;;;;;;20.99;53.09;100801.22;5049357;28;20100;-84
2022/08/08 09:42:03;;;;;;;10.27;4.53;;;;;;;20.89;53.23;100796.66;5050095;28;20094;-84
2022/08/08 09:44:48;;;;;;;13.30;4.82;;;;;;;20.95;52.82;100800.19;5050016;28;20036;-85
2022/08/08 09:47:14;;;;;;;9.15;5.00;;;;;;;21.10;51.22;100799.84;5049572;28;20041;-85
2022/08/08 09:49:40;;;;;;;7.68;4.45;;;;;;;21.13;50.56;100786.50;5047657;28;20108;-84
2022/08/08 09:52:06;;;;;;;9.27;5.18;;;;;;;21.20;50.90;100797.97;5042855;28;20033;-84
2022/08/08 09:54:49;;;;;;;7.47;3.92;;;;;;;21.20;50.09;100793.25;5029599;28;20034;-84
2022/08/08 09:57:24;;;;;;;11.15;4.20;;;;;;;21.26;50.35;100790.34;5029548;28;20128;-84
2022/08/08 09:59:51;;;;;;;9.82;4.07;;;;;;;21.40;49.70;100787.56;5043902;28;20040;-89
2022/08/08 10:02:23;;;;;;;7.05;4.07;;;;;;;21.38;50.08;100781.50;5050012;28;20025;-90
2022/08/08 10:04:50;;;;;;;11.18;3.40;;;;;;;21.51;48.96;100785.34;5048015;28;20091;-78
2022/08/08 10:07:16;;;;;;;5.80;3.22;;;;;;;21.48;49.87;100786.78;5047567;28;20044;-78
2022/08/08 10:09:43;;;;;;;19.80;5.22;;;;;;;21.54;49.06;100791.06;5048528;28;20396;-81
2022/08/08 10:12:09;;;;;;;6.32;3.67;;;;;;;21.63;48.59;100787.56;5049633;28;20036;-81
2022/08/08 10:14:36;;;;;;;16.75;4.80;;;;;;;21.87;48.96;100787.25;5050765;28;20056;-89
2022/08/08 10:17:03;;;;;;;9.95;3.97;;;;;;;21.91;49.16;100787.44;5052304;28;20037;-89
2022/08/08 10:19:37;;;;;;;7.45;3.95;;;;;;;21.97;49.25;100786.16;5049776;28;20040;-85
2022/08/08 10:22:03;;;;;;;7.82;3.75;;;;;;;21.98;48.48;100787.00;5050416;28;20116;-85
2022/08/08 10:24:30;;;;;;;11.20;3.88;;;;;;;21.89;47.67;100781.38;5048536;28;20102;-81
2022/08/08 10:27:05;;;;;;;8.27;3.72;;;;;;;21.85;47.94;100783.16;5035224;28;20033;-83
2022/08/08 10:29:57;;;;;;;8.65;3.50;;;;;;;22.14;46.43;100774.34;5046145;28;20052;-82
2022/08/08 10:32:39;;;;;;;8.00;3.92;;;;;;;22.16;46.75;100777.63;5040356;28;20044;-82
2022/08/08 10:35:15;;;;;;;23.90;3.65;;;;;;;22.14;46.73;100779.91;5047794;28;20132;-83
2022/08/08 10:37:57;;;;;;;10.48;4.70;;;;;;;22.39;46.23;100774.75;5042179;28;20045;-83
2022/08/08 10:40:25;;;;;;;6.78;3.65;;;;;;;22.23;47.11;100770.78;5045270;28;20062;-83
2022/08/08 10:43:03;;;;;;;5.72;2.40;;;;;;;22.12;46.35;100771.06;5047720;28;20085;-83
2022/08/08 10:45:29;;;;;;;9.40;3.78;;;;;;;22.32;46.02;100779.13;5048162;28;20192;-84
2022/08/08 10:47:59;;;;;;;7.80;4.05;;;;;;;22.12;46.04;100778.56;5044896;28;20025;-84
2022/08/08 10:50:37;;;;;;;5.97;3.05;;;;;;;22.40;45.82;100772.78;5047489;28;20036;-84
2022/08/08 10:53:07;;;;;;;5.72;3.40;;;;;;;22.57;45.24;100779.56;5045326;28;20033;-84
2022/08/08 10:55:34;;;;;;;7.18;3.38;;;;;;;22.19;45.72;100781.69;5048637;28;20029;-84
2022/08/08 10:58:04;;;;;;;8.07;3.50;;;;;;;22.59;45.66;100777.28;5048388;28;20060;-87
2022/08/08 11:00:30;;;;;;;9.18;3.83;;;;;;;22.79;43.86;100775.06;5047433;28;20675;-87
2022/08/08 11:03:07;;;;;;;7.22;3.28;;;;;;;22.77;44.74;100772.59;5048355;28;20033;-81
2022/08/08 11:05:42;;;;;;;6.30;2.70;;;;;;;22.62;45.62;100773.84;5045453;28;20091;-81
2022/08/08 11:08:18;;;;;;;8.75;3.45;;;;;;;22.48;43.92;100772.00;5046932;28;20033;-80
2022/08/08 11:10:43;;;;;;;8.93;4.43;;;;;;;22.95;43.84;100767.06;5044353;28;20033;-80
2022/08/08 11:13:09;;;;;;;6.43;3.20;;;;;;;22.88;44.68;100763.97;5046447;28;20119;-82
2022/08/08 11:15:34;;;;;;;5.45;3.28;;;;;;;23.27;43.84;100755.81;5047117;28;20266;-81
2022/08/08 11:18:00;;;;;;;6.35;3.53;;;;;;;23.61;42.42;100764.47;5045614;28;20041;-83
2022/08/08 11:20:27;;;;;;;5.47;2.97;;;;;;;23.13;44.17;100751.22;5041458;28;20124;-84
2022/08/08 11:22:54;;;;;;;5.65;2.70;;;;;;;23.18;44.29;100753.84;5039119;28;20048;-82
2022/08/08 11:25:32;;;;;;;7.43;3.28;;;;;;;23.63;42.42;100759.41;5034150;28;20045;-81
2022/08/08 11:27:59;;;;;;;31.52;4.38;;;;;;;23.26;43.72;100760.56;5026865;28;20493;-80
2022/08/08 11:30:29;;;;;;;5.53;3.17;;;;;;;23.13;43.50;100762.34;5044517;28;20110;-81
2022/08/08 11:32:57;;;;;;;6.68;3.35;;;;;;;23.32;43.65;100755.63;5044849;28;20036;-82
2022/08/08 11:35:24;;;;;;;6.10;3.33;;;;;;;23.43;42.65;100751.34;5046346;28;20381;-80
2022/08/08 11:37:49;;;;;;;7.00;2.92;;;;;;;23.15;42.06;100753.66;5045851;28;20441;-85
2022/08/08 11:40:15;;;;;;;4.53;2.67;;;;;;;22.76;42.37;100753.50;5047012;28;20127;-88
2022/08/08 11:42:42;;;;;;;8.77;3.40;;;;;;;22.94;42.91;100751.53;5048775;28;20146;-88
2022/08/08 11:45:09;;;;;;;7.60;2.83;;;;;;;22.94;42.56;100749.56;5048196;28;20143;-88
2022/08/08 11:47:35;;;;;;;6.90;2.67;;;;;;;23.08;42.06;100748.59;5047913;28;20036;-88
2022/08/08 11:50:05;;;;;;;5.43;2.35;;;;;;;23.11;42.13;100741.59;5046919;28;20060;-87
2022/08/08 11:52:32;;;;;;;5.85;3.40;;;;;;;23.20;41.82;100745.16;5047529;28;20039;-87
2022/08/08 11:54:57;;;;;;;4.40;2.22;;;;;;;23.21;41.80;100735.66;5048634;28;20585;-87
2022/08/08 11:57:25;;;;;;;10.77;2.83;;;;;;;23.43;40.97;100743.00;5048664;28;20037;-87